Time;durP1;ratioP1;P1;durP2;ratioP2;P2;SDS_P1;SDS_P2;PMS_P1;PMS_P2;Temp;Humidity;BMP_temperature;BMP_pressure;BME280_temperature;BME280_humidity;BME280_pressure;Samples;Min_cycle;Max_cycle;Signal;HPM_P1;HPM_P2
2022/12/06 00:07:56;;;;;;;5.63;5.13;;;4.70;1.00;;;;;;5076629;28;20844;-75
2022/12/06 00:10:22;;;;;;;6.13;5.40;;;4.70;1.00;;;;;;5093185;28;20429;-72
2022/12/06 00:12:47;;;;;;;7.43;5.53;;;4.70;1.00;;;;;;5089494;28;20175;-70
2022/12/06 00:15:13;;;;;;;6.23;5.20;;;4.70;1.00;;;;;;5072142;28;20187;-76
2022/12/06 00:17:39;;;;;;;9.43;6.73;;;4.70;1.00;;;;;;5072895;28;20211;-76
2022/12/06 00:20:05;;;;;;;7.87;6.33;;;4.60;1.00;;;;;;5093162;28;20170;-70
2022/12/06 00:22:31;;;;;;;10.10;4.70;;;4.60;1.00;;;;;;5092433;28;20565;-71
2022/12/06 00:24:57;;;;;;;7.10;6.40;;;4.60;1.00;;;;;;5073171;28;20424;-75
2022/12/06 00:27:22;;;;;;;6.97;6.03;;;4.60;1.00;;;;;;5073818;28;20207;-75
2022/12/06 00:29:48;;;;;;;7.03;5.80;;;4.60;1.00;;;;;;5072884;28;20181;-71
2022/12/06 00:32:14;;;;;;;11.33;6.03;;;4.60;1.00;;;;;;5083315;28;20178;-75
2022/12/06 00:34:39;;;;;;;10.07;5.13;;;4.60;1.00;;;;;;5092027;28;20202;-71
2022/12/06 00:37:05;;;;;;;7.10;6.30;;;4.60;1.00;;;;;;5083773;28;20195;-75
2022/12/06 00:39:31;;;;;;;8.17;5.97;;;4.60;1.00;;;;;;5072871;28;20543;-75
2022/12/06 00:41:57;;;;;;;7.30;4.73;;;4.60;1.00;;;;;;5078795;28;20306;-70
2022/12/06 00:44:22;;;;;;;9.40;6.23;;;4.60;1.00;;;;;;5091987;28;20225;-72
2022/12/06 00:46:48;;;;;;;6.70;5.10;;;4.60;1.00;;;;;;5087521;28;20198;-70
2022/12/06 00:49:14;;;;;;;5.70;5.10;;;4.60;1.00;;;;;;5072585;28;20205;-71
2022/12/06 00:51:40;;;;;;;9.53;4.67;;;4.60;1.00;;;;;;5075654;28;20173;-71
2022/12/06 00:54:06;;;;;;;6.70;4.70;;;4.60;1.00;;;;;;5092008;28;20241;-72
2022/12/06 00:56:35;;;;;;;3.97;3.63;;;4.70;1.00;;;;;;5090936;28;20857;-70
2022/12/06 00:59:00;;;;;;;5.30;3.93;;;4.70;1.00;;;;;;5071914;28;20470;-72
2022/12/06 01:01:29;;;;;;;3.37;3.07;;;4.60;1.00;;;;;;5080568;28;20919;-75
2022/12/06 01:03:57;;;;;;;3.90;3.03;;;4.60;1.00;;;;;;5091525;28;20169;-70
2022/12/06 01:06:26;;;;;;;3.60;2.80;;;4.60;1.00;;;;;;5084322;28;20968;-73
2022/12/06 01:08:57;;;;;;;4.00;3.70;;;4.60;1.00;;;;;;5072473;28;20397;-71
2022/12/06 01:11:24;;;;;;;4.30;3.73;;;4.50;1.00;;;;;;5078649;28;20428;-75
2022/12/06 01:13:50;;;;;;;4.33;3.00;;;4.50;1.00;;;;;;5094387;28;20411;-71
2022/12/06 01:16:20;;;;;;;5.63;3.63;;;4.50;1.00;;;;;;5090922;28;20527;-70
2022/12/06 01:18:46;;;;;;;6.03;3.23;;;4.50;1.00;;;;;;5076011;28;20402;-71
2022/12/06 01:21:17;;;;;;;5.70;3.70;;;4.50;1.00;;;;;;5079381;28;20413;-75
2022/12/06 01:23:44;;;;;;;3.50;3.20;;;4.50;1.00;;;;;;5075268;28;20393;-72
2022/12/06 01:26:22;;;;;;;4.50;3.50;;;4.50;1.00;;;;;;5076047;28;20436;-75
2022/12/06 01:28:48;;;;;;;11.23;3.03;;;4.50;1.00;;;;;;5075924;28;20404;-75
2022/12/06 01:31:14;;;;;;;6.33;3.73;;;4.50;1.00;;;;;;5082644;28;20413;-75
2022/12/06 01:33:40;;;;;;;3.40;2.70;;;4.50;1.00;;;;;;5094878;28;20533;-74
2022/12/06 01:36:06;;;;;;;3.93;3.03;;;4.50;1.00;;;;;;5088931;28;20436;-71
2022/12/06 01:38:33;;;;;;;7.03;3.80;;;4.40;1.00;;;;;;5075676;28;20916;-71
2022/12/06 01:40:59;;;;;;;3.60;2.70;;;4.40;1.00;;;;;;5080095;28;20412;-71
2022/12/06 01:43:43;;;;;;;4.47;3.83;;;4.50;1.00;;;;;;5095610;28;20404;-76
2022/12/06 01:46:29;;;;;;;3.60;3.27;;;4.50;1.00;;;;;;5090084;28;20437;-75
2022/12/06 01:49:11;;;;;;;3.87;3.57;;;4.50;1.00;;;;;;5061313;28;20437;-71
2022/12/06 01:51:43;;;;;;;3.87;3.20;;;4.50;1.00;;;;;;5083314;28;20423;-71
2022/12/06 01:54:12;;;;;;;3.70;3.10;;;4.50;1.00;;;;;;5094827;28;20748;-75
2022/12/06 01:56:39;;;;;;;4.97;4.20;;;4.40;1.00;;;;;;5087058;28;20811;-71
2022/12/06 01:59:06;;;;;;;4.53;3.20;;;4.50;1.00;;;;;;5075293;28;20795;-72
2022/12/06 02:01:33;;;;;;;3.40;3.10;;;4.40;1.00;;;;;;5081799;28;20422;-70
2022/12/06 02:04:02;;;;;;;4.30;3.10;;;4.50;1.00;;;;;;5094529;28;20402;-75
2022/12/06 02:06:31;;;;;;;3.83;3.63;;;4.50;1.00;;;;;;5089758;28;21002;-71
2022/12/06 02:09:03;;;;;;;3.97;3.57;;;4.50;1.00;;;;;;5074213;28;20525;-74
2022/12/06 02:11:29;;;;;;;3.47;3.27;;;4.50;1.00;;;;;;5079021;28;20420;-75
2022/12/06 02:13:55;;;;;;;3.57;3.27;;;4.50;1.00;;;;;;5094487;28;20423;-75
2022/12/06 02:16:49;;;;;;;7.00;4.80;;;4.40;1.00;;;;;;5088873;28;20201;-75
2022/12/06 02:19:35;;;;;;;6.13;3.83;;;4.50;1.00;;;;;;5092868;28;20401;-71
2022/12/06 02:22:01;;;;;;;4.10;3.70;;;4.50;1.00;;;;;;5095131;28;20939;-71
2022/12/06 02:25:08;;;;;;;3.90;3.50;;;4.50;1.00;;;;;;5079805;28;20496;-75
2022/12/06 02:28:08;;;;;;;4.53;3.63;;;4.50;1.00;;;;;;5063805;28;20608;-71
2022/12/06 02:30:54;;;;;;;5.23;4.33;;;4.50;1.00;;;;;;5074335;28;20416;-72
2022/12/06 02:33:50;;;;;;;4.90;4.37;;;4.50;1.00;;;;;;5077520;28;20460;-75
2022/12/06 02:36:48;;;;;;;5.00;4.50;;;4.50;1.00;;;;;;5094770;28;20421;-71
2022/12/06 02:39:43;;;;;;;5.73;4.00;;;4.50;1.00;;;;;;5084282;28;20918;-75
2022/12/06 02:42:27;;;;;;;4.23;3.70;;;4.50;1.00;;;;;;5074485;28;20409;-75
2022/12/06 02:44:55;;;;;;;6.83;3.60;;;4.50;1.00;;;;;;5088444;28;20530;-71
2022/12/06 02:47:30;;;;;;;4.07;3.73;;;4.50;1.00;;;;;;5093838;28;20429;-71
2022/12/06 02:49:57;;;;;;;3.97;3.20;;;4.60;1.00;;;;;;5079615;28;20841;-75
2022/12/06 02:52:26;;;;;;;3.67;3.37;;;4.60;1.00;;;;;;5074424;28;20427;-72
2022/12/06 02:54:55;;;;;;;3.67;3.37;;;4.60;1.00;;;;;;5086685;28;20428;-75
2022/12/06 02:57:53;;;;;;;3.90;3.60;;;4.60;1.00;;;;;;5094275;28;20448;-75
2022/12/06 03:00:28;;;;;;;3.80;3.37;;;4.50;1.00;;;;;;5073764;28;20429;-71
2022/12/06 03:03:03;;;;;;;3.87;3.47;;;4.50;1.00;;;;;;5074184;28;20495;-75
2022/12/06 03:05:40;;;;;;;4.63;4.00;;;4.50;1.00;;;;;;5090065;28;20424;-71
2022/12/06 03:08:16;;;;;;;3.73;3.43;;;4.50;1.00;;;;;;5093635;28;20407;-71
2022/12/06 03:10:54;;;;;;;7.00;3.77;;;4.50;1.00;;;;;;5092487;28;20458;-71
2022/12/06 03:13:46;;;;;;;3.13;2.90;;;4.60;1.00;;;;;;5094005;28;20412;-71
2022/12/06 03:16:30;;;;;;;2.87;2.73;;;4.60;1.00;;;;;;5073892;28;20437;-71
2022/12/06 03:19:10;;;;;;;3.23;3.03;;;4.60;1.00;;;;;;5075806;28;20413;-71
2022/12/06 03:21:41;;;;;;;3.10;2.80;;;4.50;1.00;;;;;;5092873;28;20900;-75
2022/12/06 03:24:10;;;;;;;5.70;2.50;;;4.50;1.00;;;;;;5085038;28;20420;-75
2022/12/06 03:26:38;;;;;;;3.30;2.53;;;4.60;1.00;;;;;;5077462;28;20421;-75
2022/12/06 03:29:06;;;;;;;3.20;2.90;;;4.60;1.00;;;;;;5093879;28;20730;-75
2022/12/06 03:31:35;;;;;;;3.17;2.87;;;4.60;1.00;;;;;;5089749;28;20466;-72
2022/12/06 03:34:06;;;;;;;2.50;2.40;;;4.60;1.00;;;;;;5072626;28;20405;-74
2022/12/06 03:36:32;;;;;;;2.77;2.57;;;4.50;1.00;;;;;;5076236;28;20425;-71
2022/12/06 03:39:01;;;;;;;2.13;2.03;;;4.60;1.00;;;;;;5093506;28;20519;-71
2022/12/06 03:41:45;;;;;;;2.40;2.13;;;4.60;1.00;;;;;;5090890;28;20395;-75
2022/12/06 03:44:10;;;;;;;2.03;1.90;;;4.50;1.00;;;;;;5072514;28;20400;-71
2022/12/06 03:46:40;;;;;;;2.60;2.50;;;4.60;1.00;;;;;;5075458;28;21097;-72
2022/12/06 03:49:25;;;;;;;2.43;2.23;;;4.60;1.00;;;;;;5092251;28;20682;-74
2022/12/06 03:51:51;;;;;;;1.70;1.60;;;4.60;1.00;;;;;;5088306;28;20416;-72
2022/12/06 03:54:16;;;;;;;2.23;2.07;;;4.60;1.00;;;;;;5072328;28;20846;-75
2022/12/06 03:56:42;;;;;;;3.10;2.07;;;4.60;1.00;;;;;;5072860;28;20467;-72
2022/12/06 03:59:10;;;;;;;2.30;2.10;;;4.60;1.00;;;;;;5072998;28;20564;-74
2022/12/06 04:01:37;;;;;;;2.20;2.10;;;4.70;1.00;;;;;;5073643;28;20169;-72
2022/12/06 04:04:03;;;;;;;2.10;1.90;;;4.70;1.00;;;;;;5092356;28;20436;-75
2022/12/06 04:06:29;;;;;;;2.33;2.17;;;4.70;1.00;;;;;;5082882;28;20442;-72
2022/12/06 04:09:50;;;;;;;9.60;2.60;;;4.70;1.00;;;;;;5073285;28;20731;-75
2022/12/06 04:11:43;;;;;;;2.33;1.90;;;4.70;1.00;;;;;;5083974;28;20416;-73
2022/12/06 04:14:09;;;;;;;3.10;2.80;;;4.70;1.00;;;;;;5092232;28;20400;-72
2022/12/06 04:19:20;;;;;;;2.80;2.30;;;4.70;1.00;;;;;;5073228;28;20403;-72
2022/12/06 04:24:30;;;;;;;2.30;2.10;;;4.70;1.00;;;;;;5092181;28;20912;-73
2022/12/06 04:40:40;;;;;;;2.83;2.47;;;4.70;1.00;;;;;;5074224;28;20419;-75
2022/12/06 04:45:54;;;;;;;2.60;2.20;;;4.80;1.00;;;;;;5072379;28;20638;-74
2022/12/06 04:48:20;;;;;;;2.70;2.47;;;4.80;1.00;;;;;;5074721;28;20411;-73
2022/12/06 04:50:47;;;;;;;4.33;3.13;;;4.90;1.00;;;;;;5082287;28;20588;-73
2022/12/06 04:53:13;;;;;;;8.00;5.47;;;5.00;1.00;;;;;;5096347;28;20546;-74
2022/12/06 04:55:38;;;;;;;3.60;2.93;;;5.00;1.00;;;;;;5091467;28;20897;-72
2022/12/06 04:58:04;;;;;;;3.20;3.00;;;4.90;1.00;;;;;;5075231;28;20296;-76
2022/12/06 05:00:30;;;;;;;3.20;2.90;;;4.90;1.00;;;;;;5078521;28;20177;-73
2022/12/06 05:02:56;;;;;;;2.33;2.23;;;4.90;1.00;;;;;;5096732;28;20903;-71
2022/12/06 05:05:23;;;;;;;4.97;3.13;;;4.90;1.00;;;;;;5094027;28;20412;-75
2022/12/06 05:07:48;;;;;;;3.47;3.17;;;4.90;1.00;;;;;;5076275;28;20193;-73
2022/12/06 05:10:14;;;;;;;4.50;3.60;;;5.00;1.00;;;;;;5076219;28;20545;-74
2022/12/06 05:12:40;;;;;;;5.60;4.80;;;5.00;1.00;;;;;;5094434;28;20185;-72
2022/12/06 05:15:06;;;;;;;4.00;3.60;;;5.00;1.00;;;;;;5095531;28;20685;-73
2022/12/06 05:17:32;;;;;;;5.70;5.20;;;5.00;1.00;;;;;;5095635;28;20305;-71
2022/12/06 05:19:57;;;;;;;10.90;6.90;;;5.00;1.00;;;;;;5095379;28;20454;-74
2022/12/06 05:22:23;;;;;;;6.83;5.40;;;4.90;1.00;;;;;;5080839;28;20170;-74
2022/12/06 05:24:50;;;;;;;10.63;6.43;;;5.00;1.00;;;;;;5075707;28;20177;-73
2022/12/06 05:27:16;;;;;;;5.43;4.33;;;5.00;1.00;;;;;;5096100;28;20194;-75
2022/12/06 05:29:42;;;;;;;5.20;3.77;;;5.00;1.00;;;;;;5095769;28;20413;-74
2022/12/06 05:32:09;;;;;;;3.37;3.00;;;5.00;1.00;;;;;;5074954;28;20224;-74
2022/12/06 05:34:35;;;;;;;3.33;3.13;;;4.90;1.00;;;;;;5074947;28;20808;-72
2022/12/06 05:37:00;;;;;;;6.53;3.10;;;4.80;1.00;;;;;;5093211;28;20462;-74
2022/12/06 05:39:26;;;;;;;3.37;3.17;;;4.80;1.00;;;;;;5095706;28;20215;-73
2022/12/06 05:41:52;;;;;;;3.30;3.10;;;4.70;1.00;;;;;;5075678;28;20180;-73
2022/12/06 05:44:17;;;;;;;3.27;3.00;;;4.70;1.00;;;;;;5074852;28;20171;-73
2022/12/06 05:46:43;;;;;;;3.90;3.60;;;4.80;1.00;;;;;;5093236;28;20205;-73
2022/12/06 05:49:09;;;;;;;3.90;3.60;;;4.80;1.00;;;;;;5095672;28;20199;-71
2022/12/06 05:51:35;;;;;;;5.07;4.70;;;4.80;1.00;;;;;;5079278;28;20527;-71
2022/12/06 05:54:03;;;;;;;4.50;4.20;;;4.80;1.00;;;;;;5074593;28;20172;-74
2022/12/06 05:56:29;;;;;;;6.30;4.10;;;4.70;1.00;;;;;;5078559;28;20447;-71
2022/12/06 05:58:55;;;;;;;4.63;3.63;;;4.80;1.00;;;;;;5074413;28;20472;-71
2022/12/06 06:01:21;;;;;;;5.70;3.80;;;4.80;1.00;;;;;;5075286;28;20189;-71
2022/12/06 06:03:46;;;;;;;7.07;3.60;;;4.70;1.00;;;;;;5072803;28;20170;-71
2022/12/06 06:06:12;;;;;;;5.50;3.93;;;4.70;1.00;;;;;;5089905;28;20281;-71
2022/12/06 06:08:38;;;;;;;3.67;3.37;;;4.70;1.00;;;;;;5095444;28;20201;-74
2022/12/06 06:11:04;;;;;;;3.80;3.60;;;4.70;1.00;;;;;;5081701;28;20627;-73
2022/12/06 06:13:29;;;;;;;4.87;4.40;;;4.70;1.00;;;;;;5073504;28;20176;-71
2022/12/06 06:15:55;;;;;;;8.33;4.60;;;4.70;1.00;;;;;;5085437;28;20447;-72
2022/12/06 06:18:21;;;;;;;5.47;4.30;;;4.70;1.00;;;;;;5095244;28;20455;-75
2022/12/06 06:20:52;;;;;;;4.77;4.23;;;4.80;1.00;;;;;;5088958;28;20177;-71
2022/12/06 06:23:18;;;;;;;5.03;4.40;;;4.70;1.00;;;;;;5088219;28;20404;-75
2022/12/06 06:25:44;;;;;;;4.70;4.13;;;4.70;1.00;;;;;;5094149;28;20408;-73
2022/12/06 13:03:30;;;;;;;6.43;5.77;;;4.60;99.90;;;;;;5053107;28;20528;-75
2022/12/06 13:05:57;;;;;;;8.43;6.77;;;4.60;99.90;;;;;;5051318;28;20419;-72
2022/12/06 13:08:43;;;;;;;6.60;6.00;;;4.50;99.90;;;;;;5053421;28;20415;-75
2022/12/06 13:11:09;;;;;;;6.97;5.40;;;4.50;99.90;;;;;;5072322;28;20405;-75
2022/12/06 13:13:41;;;;;;;7.43;6.00;;;4.50;99.90;;;;;;5055430;28;20404;-72
2022/12/06 13:16:13;;;;;;;6.50;5.47;;;4.40;99.90;;;;;;5055857;28;20761;-74
2022/12/06 13:18:48;;;;;;;6.17;4.80;;;4.40;99.90;;;;;;5056564;28;20535;-73
2022/12/06 13:21:24;;;;;;;6.53;5.83;;;4.30;99.90;;;;;;5056546;28;20444;-75
2022/12/06 13:23:53;;;;;;;5.40;4.97;;;4.30;99.90;;;;;;5056542;28;20417;-73
2022/12/06 13:26:28;;;;;;;7.50;6.17;;;4.40;99.90;;;;;;5055912;28;20468;-74
2022/12/06 13:29:00;;;;;;;6.77;4.60;;;4.40;99.90;;;;;;5056736;28;20438;-74
2022/12/06 13:31:35;;;;;;;6.37;5.27;;;4.40;99.90;;;;;;5071705;28;20414;-74
2022/12/06 13:34:31;;;;;;;6.70;5.43;;;4.30;99.90;;;;;;5056210;28;20517;-76
2022/12/06 13:36:56;;;;;;;8.17;5.00;;;4.40;99.90;;;;;;5056215;28;20409;-72
2022/12/06 13:39:49;;;;;;;8.13;6.10;;;4.30;99.90;;;;;;5056366;28;20407;-75
2022/12/06 13:42:39;;;;;;;9.80;6.10;;;4.40;99.90;;;;;;5056216;28;20193;-75
2022/12/06 13:45:40;;;;;;;5.97;5.37;;;4.40;99.90;;;;;;5055516;28;20457;-72
2022/12/06 13:48:24;;;;;;;6.20;5.60;;;4.40;99.90;;;;;;5056146;28;20746;-72
2022/12/06 13:50:55;;;;;;;6.33;5.30;;;4.40;99.90;;;;;;5054755;28;20518;-72
2022/12/06 13:53:26;;;;;;;7.90;6.17;;;4.40;99.90;;;;;;5055969;28;20403;-74
2022/12/06 13:56:01;;;;;;;6.50;5.40;;;4.30;99.90;;;;;;5055164;28;20414;-74
2022/12/06 13:58:26;;;;;;;7.33;6.07;;;4.40;99.90;;;;;;5055723;28;20507;-72
2022/12/06 14:00:54;;;;;;;5.97;5.47;;;4.40;99.90;;;;;;5055905;28;20479;-74
2022/12/06 14:03:20;;;;;;;5.97;4.30;;;4.40;99.90;;;;;;5055764;28;20240;-74
2022/12/06 14:06:01;;;;;;;7.20;6.00;;;4.40;99.90;;;;;;5055021;28;20443;-74
2022/12/06 14:08:53;;;;;;;8.13;7.37;;;4.30;99.90;;;;;;5055604;28;20307;-73
2022/12/06 14:11:25;;;;;;;5.80;5.30;;;4.40;99.90;;;;;;5055605;28;20408;-72
2022/12/06 14:13:57;;;;;;;5.57;5.17;;;4.40;99.90;;;;;;5055537;28;20453;-73
2022/12/06 14:16:31;;;;;;;6.47;5.27;;;4.40;99.90;;;;;;5054809;28;20913;-73
2022/12/06 14:18:58;;;;;;;5.67;4.80;;;4.30;99.90;;;;;;5055344;28;20458;-74
2022/12/06 14:21:34;;;;;;;5.83;4.60;;;4.30;99.90;;;;;;5054636;28;20952;-73
2022/12/06 14:24:01;;;;;;;6.27;4.33;;;4.40;99.90;;;;;;5055395;28;20441;-74
2022/12/06 14:26:29;;;;;;;6.83;4.03;;;4.30;99.90;;;;;;5054968;28;20405;-73
2022/12/06 14:28:58;;;;;;;5.63;4.00;;;4.30;99.90;;;;;;5070732;28;20478;-73
2022/12/06 14:31:28;;;;;;;4.70;4.30;;;4.30;99.90;;;;;;5055604;28;20490;-74
2022/12/06 14:33:55;;;;;;;4.70;4.10;;;4.30;99.90;;;;;;5055315;28;20420;-74
2022/12/06 14:36:31;;;;;;;8.50;4.10;;;4.30;99.90;;;;;;5054611;28;20402;-73
2022/12/06 14:39:05;;;;;;;4.30;3.93;;;4.20;99.90;;;;;;5054975;28;20964;-73
2022/12/06 14:44:28;;;;;;;5.07;4.30;;;4.20;99.90;;;;;;5054615;28;20486;-73
2022/12/06 14:46:55;;;;;;;4.93;3.30;;;4.20;99.90;;;;;;5054942;28;20415;-75
2022/12/06 14:52:19;;;;;;;4.10;3.70;;;3.90;85.70;;;;;;5054814;28;20446;-73
2022/12/06 14:54:45;;;;;;;5.27;4.77;;;4.00;91.80;;;;;;5053999;28;20429;-74
2022/12/06 14:57:24;;;;;;;5.77;4.83;;;4.00;82.50;;;;;;5054686;28;20438;-74
2022/12/06 15:00:15;;;;;;;5.70;4.03;;;3.90;61.70;;;;;;5054735;28;20485;-74
2022/12/06 15:02:58;;;;;;;4.20;3.90;;;3.90;30.40;;;;;;5054651;28;20485;-73
2022/12/06 15:05:48;;;;;;;3.90;3.57;;;3.80;27.50;;;;;;5053857;28;20787;-73
2022/12/06 15:08:26;;;;;;;3.63;3.33;;;3.70;1.00;;;;;;5054594;28;20390;-73
2022/12/06 15:14:26;;;;;;;4.93;4.43;;;3.70;1.00;;;;;;5051293;28;20445;-73
2022/12/06 15:16:56;;;;;;;4.27;3.83;;;3.70;1.00;;;;;;5052873;28;20417;-73
2022/12/06 15:19:22;;;;;;;3.27;3.07;;;3.70;1.00;;;;;;5054277;28;20410;-74
2022/12/06 15:21:54;;;;;;;4.07;3.70;;;3.60;1.00;;;;;;5054260;28;20397;-73
2022/12/06 15:24:22;;;;;;;2.70;2.60;;;3.70;1.00;;;;;;5053485;28;20422;-73
2022/12/06 15:26:48;;;;;;;3.47;3.27;;;3.70;1.00;;;;;;5069572;28;20766;-73
2022/12/06 15:29:15;;;;;;;3.40;3.20;;;3.70;1.00;;;;;;5069806;28;20478;-73
2022/12/06 15:31:43;;;;;;;3.53;3.33;;;3.80;1.00;;;;;;5052586;28;20773;-73
2022/12/06 15:34:22;;;;;;;3.70;3.50;;;3.80;1.00;;;;;;5053925;28;20425;-73
2022/12/06 15:36:49;;;;;;;3.57;3.37;;;3.70;1.00;;;;;;5054123;28;20402;-73
2022/12/06 15:39:14;;;;;;;4.67;3.07;;;3.70;1.00;;;;;;5053975;28;20398;-73
2022/12/06 15:41:41;;;;;;;2.77;2.57;;;3.70;1.00;;;;;;5053030;28;20421;-73
2022/12/06 15:44:15;;;;;;;5.53;3.53;;;3.60;1.00;;;;;;5053693;28;20218;-75
2022/12/06 15:46:43;;;;;;;4.00;3.63;;;3.60;1.00;;;;;;5053629;28;20481;-72
2022/12/06 15:49:16;;;;;;;4.47;4.07;;;3.50;1.00;;;;;;5052502;28;20471;-74
2022/12/06 15:51:43;;;;;;;3.60;3.30;;;3.40;1.00;;;;;;5053737;28;20779;-73
2022/12/06 15:54:23;;;;;;;3.27;3.07;;;3.40;1.00;;;;;;5053500;28;20435;-74
2022/12/06 15:56:50;;;;;;;4.37;4.07;;;3.40;1.00;;;;;;5053651;28;20489;-73
2022/12/06 15:59:17;;;;;;;4.03;3.83;;;3.50;1.00;;;;;;5053663;28;20404;-74
2022/12/06 16:01:48;;;;;;;3.43;2.80;;;3.50;1.00;;;;;;5053573;28;20402;-73
2022/12/06 16:04:16;;;;;;;3.37;3.07;;;3.50;1.00;;;;;;5053305;28;20782;-73
2022/12/06 16:06:43;;;;;;;3.50;3.30;;;3.50;1.00;;;;;;5053504;28;20794;-74
2022/12/06 16:09:09;;;;;;;4.43;3.70;;;3.40;1.00;;;;;;5053380;28;20414;-74
2022/12/06 16:11:35;;;;;;;3.40;3.10;;;3.40;1.00;;;;;;5053376;28;20488;-73
2022/12/06 16:14:01;;;;;;;3.83;3.63;;;3.30;1.00;;;;;;5053196;28;20516;-74
2022/12/06 16:16:27;;;;;;;4.33;4.03;;;3.30;1.00;;;;;;5068328;28;20229;-73
2022/12/06 16:18:54;;;;;;;4.27;3.90;;;3.30;1.00;;;;;;5053247;28;20448;-73
2022/12/06 16:21:32;;;;;;;3.67;3.47;;;3.20;1.00;;;;;;5053335;28;20493;-73
2022/12/06 16:24:05;;;;;;;3.80;3.40;;;3.10;1.00;;;;;;5053312;28;20423;-73
2022/12/06 16:26:40;;;;;;;3.60;3.40;;;3.00;1.00;;;;;;5068598;28;20402;-73
2022/12/06 16:29:08;;;;;;;4.93;4.43;;;3.00;1.00;;;;;;5053477;28;20964;-73
2022/12/06 16:31:35;;;;;;;4.20;3.90;;;2.90;1.00;;;;;;5053370;28;20433;-74
2022/12/06 16:34:00;;;;;;;4.30;4.00;;;2.80;1.00;;;;;;5052982;28;20437;-74
2022/12/06 16:36:28;;;;;;;3.30;3.07;;;2.80;1.00;;;;;;5052708;28;20413;-73
2022/12/06 16:38:57;;;;;;;3.43;3.23;;;2.80;1.00;;;;;;5053232;28;20647;-73
2022/12/06 16:41:31;;;;;;;3.60;3.30;;;2.80;1.00;;;;;;5068624;28;20785;-73
2022/12/06 16:43:58;;;;;;;3.60;3.30;;;2.80;1.00;;;;;;5054684;28;20440;-73
2022/12/06 16:46:26;;;;;;;4.23;3.83;;;2.70;1.00;;;;;;5056627;28;20409;-73
2022/12/06 16:49:00;;;;;;;9.93;4.00;;;2.70;1.00;;;;;;5057159;28;20405;-73
2022/12/06 16:51:30;;;;;;;4.30;3.90;;;2.60;1.00;;;;;;5057185;28;20412;-73
2022/12/06 16:53:56;;;;;;;4.83;4.43;;;2.50;1.00;;;;;;5056978;28;20800;-73
2022/12/06 16:56:22;;;;;;;4.60;3.87;;;2.40;1.00;;;;;;5056447;28;20500;-73
2022/12/06 16:58:48;;;;;;;4.77;4.37;;;2.40;1.00;;;;;;5056942;28;20479;-73
2022/12/06 17:01:39;;;;;;;5.83;5.33;;;2.40;1.00;;;;;;5056940;28;20408;-72
2022/12/06 17:04:09;;;;;;;4.60;3.97;;;2.40;1.00;;;;;;5056660;28;20195;-72
2022/12/06 17:06:35;;;;;;;4.13;3.83;;;2.30;1.00;;;;;;5056368;28;20441;-72
2022/12/06 17:09:01;;;;;;;5.10;4.63;;;2.20;1.00;;;;;;5056773;28;20898;-72
2022/12/06 17:14:16;;;;;;;10.93;8.00;;;2.10;1.00;;;;;;5056604;28;20439;-73
2022/12/06 17:16:43;;;;;;;6.30;5.70;;;2.20;1.00;;;;;;5056388;28;20402;-72
2022/12/06 17:19:15;;;;;;;6.63;5.00;;;2.20;1.00;;;;;;5056512;28;20457;-72
2022/12/06 17:21:40;;;;;;;6.50;5.87;;;2.10;1.00;;;;;;5056584;28;20404;-72
2022/12/06 17:24:07;;;;;;;6.77;5.20;;;2.10;1.00;;;;;;5056105;28;20425;-76
2022/12/06 17:26:33;;;;;;;6.07;5.47;;;2.10;1.00;;;;;;5056103;28;20416;-72
2022/12/06 17:28:59;;;;;;;6.17;5.57;;;2.10;1.00;;;;;;5056368;28;20886;-72
2022/12/06 17:31:25;;;;;;;5.87;5.20;;;2.10;1.00;;;;;;5056594;28;20167;-72
2022/12/06 17:33:51;;;;;;;8.60;5.53;;;2.20;1.00;;;;;;5056386;28;20774;-72
2022/12/06 17:36:17;;;;;;;8.40;4.80;;;2.30;1.00;;;;;;5055740;28;20635;-73
2022/12/06 17:38:43;;;;;;;6.00;5.17;;;2.30;1.00;;;;;;5056297;28;20532;-72
2022/12/06 17:44:02;;;;;;;6.90;5.57;;;2.30;1.00;;;;;;5055924;28;20424;-74
2022/12/06 17:46:28;;;;;;;8.47;5.90;;;2.30;1.00;;;;;;5055536;28;20479;-72
2022/12/06 17:48:57;;;;;;;5.63;5.03;;;2.30;1.00;;;;;;5056109;28;20819;-73
2022/12/06 17:51:25;;;;;;;5.37;4.80;;;2.40;1.00;;;;;;5056114;28;20408;-72
2022/12/06 17:53:51;;;;;;;5.63;5.13;;;2.40;1.00;;;;;;5055960;28;20421;-72
2022/12/06 17:56:34;;;;;;;6.00;5.33;;;2.40;1.00;;;;;;5070866;28;20417;-73
2022/12/06 17:59:02;;;;;;;6.97;6.37;;;2.40;1.00;;;;;;5055906;28;20744;-71
2022/12/06 18:01:29;;;;;;;5.60;5.10;;;2.30;1.00;;;;;;5055817;28;20416;-72
2022/12/06 18:03:57;;;;;;;7.03;6.10;;;2.30;1.00;;;;;;5055784;28;20520;-72
2022/12/06 18:06:25;;;;;;;10.37;8.43;;;2.40;1.00;;;;;;5054917;28;20432;-73
2022/12/06 18:08:51;;;;;;;5.33;4.93;;;2.40;1.00;;;;;;5071433;28;20508;-72
2022/12/06 18:11:17;;;;;;;5.97;5.43;;;2.40;1.00;;;;;;5055681;28;20412;-73
2022/12/06 18:13:44;;;;;;;9.50;7.03;;;2.40;1.00;;;;;;5055570;28;20434;-73
2022/12/06 18:16:15;;;;;;;8.50;7.27;;;2.40;1.00;;;;;;5054813;28;20413;-73
2022/12/06 18:18:42;;;;;;;10.20;7.30;;;2.50;1.00;;;;;;5055318;28;20465;-72
2022/12/06 18:21:09;;;;;;;8.63;7.77;;;2.50;1.00;;;;;;5055472;28;20406;-72
2022/12/06 18:23:36;;;;;;;7.57;6.73;;;2.50;1.00;;;;;;5055330;28;20398;-72
2022/12/06 18:26:03;;;;;;;10.30;7.60;;;2.60;1.00;;;;;;5054760;28;20404;-72
2022/12/06 18:28:30;;;;;;;8.83;7.43;;;2.50;1.00;;;;;;5055188;28;20440;-72
2022/12/06 18:30:55;;;;;;;13.10;8.10;;;2.60;1.00;;;;;;5070621;28;20421;-72
2022/12/06 18:33:21;;;;;;;7.63;6.80;;;2.60;1.00;;;;;;5055246;28;20878;-73
2022/12/06 18:35:50;;;;;;;9.30;6.80;;;2.70;1.00;;;;;;5054780;28;20179;-71
2022/12/06 18:38:16;;;;;;;9.57;7.40;;;2.60;1.00;;;;;;5055252;28;20194;-72
2022/12/06 18:40:42;;;;;;;21.47;10.90;;;2.60;1.00;;;;;;5055146;28;20943;-72
2022/12/06 18:43:07;;;;;;;8.37;6.60;;;2.70;1.00;;;;;;5055172;28;20174;-72
2022/12/06 18:45:34;;;;;;;10.10;7.67;;;2.60;1.00;;;;;;5054395;28;20199;-72
2022/12/06 18:48:01;;;;;;;9.90;7.10;;;2.70;1.00;;;;;;5055033;28;20487;-72
2022/12/06 18:50:27;;;;;;;16.63;7.53;;;2.70;1.00;;;;;;5054994;28;20394;-72
2022/12/06 18:52:53;;;;;;;8.50;7.70;;;2.70;1.00;;;;;;5054873;28;20429;-72
2022/12/06 18:55:19;;;;;;;12.17;8.40;;;2.70;1.00;;;;;;5053029;28;20488;-72
2022/12/06 18:57:44;;;;;;;12.97;9.23;;;2.70;1.00;;;;;;5070354;28;20195;-72
2022/12/06 19:00:11;;;;;;;9.33;7.13;;;2.70;1.00;;;;;;5053687;28;20485;-72
2022/12/06 19:02:37;;;;;;;9.93;6.27;;;2.70;1.00;;;;;;5054680;28;20531;-71
2022/12/06 19:05:03;;;;;;;7.80;7.10;;;2.70;1.00;;;;;;5053698;28;20443;-72
2022/12/06 19:07:29;;;;;;;9.70;7.70;;;2.70;1.00;;;;;;5054070;28;20654;-71
2022/12/06 19:09:54;;;;;;;7.13;6.43;;;2.70;1.00;;;;;;5054616;28;20405;-71
2022/12/06 19:12:20;;;;;;;8.30;6.63;;;2.70;1.00;;;;;;5054415;28;20233;-70
2022/12/06 19:14:46;;;;;;;7.90;6.80;;;2.70;1.00;;;;;;5052544;28;20199;-71
2022/12/06 19:17:12;;;;;;;7.50;6.00;;;2.70;1.00;;;;;;5054249;28;20178;-72
2022/12/06 19:19:40;;;;;;;6.80;6.10;;;2.70;1.00;;;;;;5054615;28;20163;-72
2022/12/06 19:22:07;;;;;;;7.10;5.73;;;2.70;1.00;;;;;;5054322;28;20500;-72
2022/12/06 19:24:34;;;;;;;8.23;6.53;;;2.70;1.00;;;;;;5053575;28;20984;-71
2022/12/06 19:27:00;;;;;;;18.33;7.90;;;2.70;1.00;;;;;;5054051;28;20743;-70
2022/12/06 19:29:27;;;;;;;7.70;6.87;;;2.80;1.00;;;;;;5069717;28;20448;-72
2022/12/06 19:31:53;;;;;;;8.17;6.50;;;2.80;1.00;;;;;;5054070;28;20405;-71
2022/12/06 19:34:25;;;;;;;6.97;6.30;;;2.70;1.00;;;;;;5053471;28;20774;-71
2022/12/06 19:36:53;;;;;;;8.37;7.40;;;2.70;1.00;;;;;;5054189;28;20171;-71
2022/12/06 19:39:19;;;;;;;7.40;6.80;;;2.70;1.00;;;;;;5053764;28;20507;-72
2022/12/06 19:44:30;;;;;;;6.70;5.47;;;2.70;1.00;;;;;;5053451;28;20483;-70
2022/12/06 19:46:56;;;;;;;6.60;5.90;;;2.60;1.00;;;;;;5052577;28;20805;-72
2022/12/06 19:49:24;;;;;;;5.93;5.30;;;2.50;1.00;;;;;;5053862;28;20450;-71
2022/12/06 19:51:51;;;;;;;5.93;5.43;;;2.60;1.00;;;;;;5053980;28;20413;-71
2022/12/06 19:54:26;;;;;;;6.57;5.90;;;2.60;1.00;;;;;;5053555;28;20449;-73
2022/12/06 19:56:54;;;;;;;6.90;6.10;;;2.70;1.00;;;;;;5053773;28;20397;-71
2022/12/06 19:59:21;;;;;;;7.80;6.27;;;2.70;1.00;;;;;;5053589;28;20449;-72
2022/12/06 20:01:47;;;;;;;10.60;6.57;;;2.70;1.00;;;;;;5069096;28;20497;-72
2022/12/06 20:04:22;;;;;;;7.40;6.10;;;2.70;1.00;;;;;;5052342;28;20483;-72
2022/12/06 20:06:48;;;;;;;8.07;5.80;;;2.70;1.00;;;;;;5053443;28;20431;-72
2022/12/06 20:09:15;;;;;;;5.73;5.20;;;2.70;1.00;;;;;;5053494;28;20502;-72
2022/12/06 20:12:00;;;;;;;6.37;5.77;;;2.70;1.00;;;;;;5053504;28;20817;-72
2022/12/06 20:14:32;;;;;;;7.80;6.30;;;2.80;1.00;;;;;;5052799;28;20432;-71
2022/12/06 20:16:57;;;;;;;6.93;6.10;;;2.90;1.00;;;;;;5069086;28;20417;-72
2022/12/06 20:19:23;;;;;;;8.10;6.10;;;2.90;1.00;;;;;;5052528;28;20390;-71
2022/12/06 20:21:49;;;;;;;9.87;7.07;;;2.90;1.00;;;;;;5053353;28;20176;-72
2022/12/06 20:24:18;;;;;;;8.67;5.07;;;2.90;1.00;;;;;;5053082;28;20447;-71
2022/12/06 20:26:46;;;;;;;7.70;6.87;;;3.00;1.00;;;;;;5053422;28;20394;-71
2022/12/06 20:29:11;;;;;;;8.07;6.67;;;3.00;1.00;;;;;;5053403;28;20743;-71
2022/12/06 20:31:37;;;;;;;8.73;6.53;;;3.10;1.00;;;;;;5052098;28;20524;-72
2022/12/06 20:34:05;;;;;;;9.83;6.47;;;3.00;1.00;;;;;;5053302;28;20920;-73
2022/12/06 20:36:32;;;;;;;12.43;6.70;;;3.00;1.00;;;;;;5052946;28;20405;-71
2022/12/06 20:38:59;;;;;;;6.67;5.87;;;3.00;1.00;;;;;;5053280;28;20445;-72
2022/12/06 20:41:28;;;;;;;10.40;7.80;;;3.00;1.00;;;;;;5053280;28;20398;-73